Grande Prairie Airport
CYQU : now visible

Airfield :











YOU CAN JOIN US ON...

 
LOGIN :

Register | Disclaimer

   EN    FR    IT 

 









Legend :    VFR   Marginal VFR   IFR   Intensive IFR   Very Intensive IFR
Visi :
Ceiling :
>= 8 km
>= 3000ft
5 to 8 km
1000 to 3000 ft
1500m to 5 km
500 to 1000 ft
800 to 1500m
200 to 500 ft
< 800m
< 200 ft
Symbols :   Thunderstorms  Fog  Heavy snow  Heavy precipitations  Wind > 20 kt






- Airport Elevation : 2195 ft
- IATA code : YQU


CYQU - Grande Prairie

CURRENT METAR :
  • 071500Z 25019G24KT 25SM FEW170 FEW220 13/06 A2976 RMK AC1CI1 SLP091 DENSITY ALT 2700FT

EXPIRED METARs :
  • 071400Z 25011KT 25SM SCT170 BKN220 11/06 A2978 RMK AC3CI2 SLP097 DENSITY ALT 2500FT
  • 071300Z 24012KT 25SM BKN170 11/06 A2975 RMK AC5 SLP088 DENSITY ALT 2500FT

TAF TAF CYQU
Valid from the 07 at 13:00 until the 08 at 01:00 UTC


071238Z 0713/0801 23012KT P6SM BKN160
FM071500 26015G25KT P6SM FEW080 SCT170
BECMG 0716/0718 26020G30KT RMK NXT FCST BY 071900Z
CZEG FIR / North America



MET'MAP, your aeronautical weather chart ! - Copyright ORBIFLY December 2007 - Disclaimer

ORBIFLY MET'MAP TEAM :

Programming & Development : Alexandra Zaïnal
Concept & original design : Baudouin d'Aumeries
Assistance for programming : Marc-Olivier Méhu
Technical & hardware support : Manuel Goepfert

Contact : metmap@orbifly.com




SOURCES & CREDITS :

   NOAA       Earth
Advisory